createdAt,value
2022-10-01T00:01:28.178Z,85.86
2022-10-01T00:03:57.105Z,85.90
2022-10-01T00:06:24.921Z,85.77
2022-10-01T00:08:52.751Z,85.43
2022-10-01T00:11:26.366Z,85.26
2022-10-01T00:13:55.258Z,85.11
2022-10-01T00:16:25.055Z,85.01
2022-10-01T00:18:54.392Z,84.55
2022-10-01T00:21:23.869Z,83.84
2022-10-01T00:23:55.619Z,84.94
2022-10-01T00:26:27.193Z,86.18
2022-10-01T00:28:57.399Z,85.36
2022-10-01T00:31:25.942Z,85.53
2022-10-01T00:33:54.400Z,85.70
2022-10-01T00:36:22.380Z,86.89
2022-10-01T00:38:50.191Z,85.53
2022-10-01T00:41:19.357Z,85.92
2022-10-01T00:43:51.149Z,85.59
2022-10-01T00:46:21.776Z,86.35
2022-10-01T00:48:56.041Z,86.60
2022-10-01T00:51:23.872Z,86.37
2022-10-01T00:53:51.458Z,85.11
2022-10-01T00:56:19.861Z,85.20
2022-10-01T00:58:54.244Z,87.78
2022-10-01T01:01:22.015Z,89.67
2022-10-01T01:03:50.130Z,91.83
2022-10-01T01:06:18.327Z,91.85
2022-10-01T01:08:45.996Z,93.83
2022-10-01T01:11:20.289Z,95.40
2022-10-01T01:13:56.741Z,98.24
2022-10-01T01:16:28.098Z,100.00
2022-10-01T01:19:00.245Z,100.00
2022-10-01T01:21:31.090Z,100.00
2022-10-01T01:24:25.004Z,100.00
2022-10-01T01:27:03.456Z,100.00
2022-10-01T01:29:39.406Z,100.00
2022-10-01T01:32:14.813Z,100.00
2022-10-01T01:34:44.833Z,100.00
2022-10-01T01:37:17.489Z,100.00
2022-10-01T01:39:48.985Z,100.00
2022-10-01T01:42:21.436Z,100.00
2022-10-01T01:44:53.199Z,100.00
2022-10-01T01:47:22.407Z,100.00
2022-10-01T01:49:51.710Z,100.00
2022-10-01T01:52:19.864Z,100.00
2022-10-01T01:54:49.694Z,100.00
2022-10-01T01:57:18.470Z,100.00
2022-10-01T01:59:46.366Z,100.00
2022-10-01T02:02:16.749Z,100.00
2022-10-01T02:04:46.960Z,100.00
2022-10-01T02:07:29.373Z,100.00
2022-10-01T02:10:06.196Z,100.00
2022-10-01T02:12:42.056Z,100.00
2022-10-01T02:15:12.867Z,100.00
2022-10-01T02:17:50.658Z,100.00
2022-10-01T02:20:21.665Z,100.00
2022-10-01T02:22:52.905Z,100.00
2022-10-01T02:25:27.177Z,100.00
2022-10-01T02:27:59.261Z,100.00
2022-10-01T02:30:27.494Z,100.00
2022-10-01T02:32:59.521Z,100.00
2022-10-01T02:35:34.651Z,100.00
2022-10-01T02:38:04.366Z,100.00
2022-10-01T02:40:36.361Z,100.00
2022-10-01T02:43:07.773Z,100.00
2022-10-01T02:45:38.271Z,100.00
2022-10-01T02:48:09.366Z,100.00
2022-10-01T02:50:42.365Z,100.00
2022-10-01T02:53:11.772Z,100.00
2022-10-01T02:55:40.691Z,100.00
2022-10-01T02:58:07.904Z,100.00
2022-10-01T03:00:36.280Z,100.00
2022-10-01T03:04:05.741Z,100.00
2022-10-01T03:06:35.946Z,100.00
2022-10-01T03:09:03.937Z,100.00
2022-10-01T03:11:31.902Z,100.00
2022-10-01T03:14:00.931Z,100.00
2022-10-01T03:16:28.687Z,100.00
2022-10-01T03:18:56.505Z,100.00
2022-10-01T03:21:27.381Z,100.00
2022-10-01T03:23:56.301Z,100.00
2022-10-01T03:26:24.073Z,100.00
2022-10-01T03:28:51.878Z,100.00
2022-10-01T03:31:19.445Z,100.00
2022-10-01T03:33:47.763Z,100.00
2022-10-01T03:36:15.548Z,100.00
2022-10-01T03:38:43.072Z,100.00
2022-10-01T03:41:12.155Z,100.00
2022-10-01T03:43:39.934Z,100.00
2022-10-01T03:46:08.030Z,100.00
2022-10-01T03:48:36.262Z,100.00
2022-10-01T03:51:05.274Z,100.00
2022-10-01T03:53:33.056Z,100.00
2022-10-01T03:56:01.124Z,100.00
2022-10-01T03:58:30.082Z,100.00
2022-10-01T04:00:58.260Z,100.00
2022-10-01T04:03:25.860Z,100.00
2022-10-01T04:05:53.487Z,100.00
2022-10-01T04:08:24.343Z,100.00
2022-10-01T04:10:52.742Z,100.00
2022-10-01T04:13:20.557Z,100.00
2022-10-01T04:15:49.680Z,100.00
2022-10-01T04:18:20.823Z,100.00
2022-10-01T04:20:48.990Z,100.00
2022-10-01T04:23:17.213Z,100.00
2022-10-01T04:25:45.631Z,100.00
2022-10-01T04:28:14.448Z,100.00
2022-10-01T04:30:43.388Z,100.00
2022-10-01T04:33:14.578Z,100.00
2022-10-01T04:35:43.223Z,100.00
2022-10-01T04:38:14.231Z,100.00
2022-10-01T04:40:42.212Z,100.00
2022-10-01T04:43:10.562Z,100.00
2022-10-01T04:45:38.497Z,100.00
2022-10-01T04:48:06.233Z,100.00
2022-10-01T04:50:35.134Z,100.00
2022-10-01T04:53:03.339Z,100.00
2022-10-01T04:55:31.960Z,100.00
2022-10-01T04:57:59.468Z,100.00
2022-10-01T05:00:27.862Z,100.00
2022-10-01T05:02:55.944Z,100.00
2022-10-01T05:05:27.093Z,100.00
2022-10-01T05:07:56.432Z,100.00
2022-10-01T05:10:24.998Z,100.00
2022-10-01T05:12:52.952Z,100.00
2022-10-01T05:15:21.097Z,100.00
2022-10-01T05:17:49.186Z,100.00
2022-10-01T05:20:18.697Z,100.00
2022-10-01T05:22:46.526Z,100.00
2022-10-01T05:25:15.545Z,100.00
2022-10-01T05:27:43.439Z,100.00
2022-10-01T05:30:12.251Z,100.00
2022-10-01T05:32:40.728Z,100.00
2022-10-01T05:35:09.646Z,100.00
2022-10-01T05:37:37.201Z,100.00
2022-10-01T05:40:06.520Z,100.00
2022-10-01T05:42:35.631Z,100.00
2022-10-01T05:45:04.391Z,100.00
2022-10-01T05:47:32.735Z,100.00
2022-10-01T05:50:00.390Z,100.00
2022-10-01T05:52:27.876Z,100.00
2022-10-01T05:54:55.569Z,100.00
2022-10-01T05:57:23.106Z,100.00
2022-10-01T05:59:52.392Z,100.00
2022-10-01T06:02:20.224Z,100.00
2022-10-01T06:04:48.037Z,100.00
2022-10-01T06:07:16.187Z,100.00
2022-10-01T06:09:44.898Z,100.00
2022-10-01T06:12:15.413Z,100.00
2022-10-01T06:14:46.759Z,100.00
2022-10-01T06:17:16.785Z,100.00
2022-10-01T06:19:44.624Z,100.00
2022-10-01T06:22:12.742Z,100.00
2022-10-01T06:25:42.211Z,100.00
2022-10-01T06:28:15.032Z,100.00
2022-10-01T06:30:43.775Z,100.00
2022-10-01T06:33:14.783Z,100.00
2022-10-01T06:35:43.852Z,100.00
2022-10-01T06:38:12.173Z,100.00
2022-10-01T06:40:40.283Z,100.00
2022-10-01T06:43:08.536Z,100.00
2022-10-01T06:45:38.965Z,100.00
2022-10-01T06:48:06.699Z,100.00
2022-10-01T06:50:36.332Z,100.00
2022-10-01T06:53:04.019Z,100.00
2022-10-01T06:55:33.341Z,100.00
2022-10-01T06:58:01.825Z,100.00
2022-10-01T07:00:30.768Z,100.00
2022-10-01T07:02:59.676Z,100.00
2022-10-01T07:05:27.879Z,100.00
2022-10-01T07:07:57.016Z,100.00
2022-10-01T07:10:25.525Z,100.00
2022-10-01T07:12:53.636Z,100.00
2022-10-01T07:15:22.599Z,100.00
2022-10-01T07:17:52.160Z,100.00
2022-10-01T07:20:21.276Z,100.00
2022-10-01T07:22:49.972Z,100.00
2022-10-01T07:25:19.304Z,100.00
2022-10-01T07:27:47.215Z,100.00
2022-10-01T07:30:15.023Z,100.00
2022-10-01T07:32:44.892Z,100.00
2022-10-01T07:35:12.642Z,100.00
2022-10-01T07:37:40.397Z,100.00
2022-10-01T07:40:09.717Z,100.00
2022-10-01T07:42:40.059Z,100.00
2022-10-01T07:45:09.143Z,100.00
2022-10-01T07:47:36.650Z,100.00
2022-10-01T07:50:07.008Z,100.00
2022-10-01T07:52:34.760Z,100.00
2022-10-01T07:55:02.902Z,100.00
2022-10-01T07:57:30.430Z,100.00
2022-10-01T07:59:59.517Z,100.00
2022-10-01T08:02:31.033Z,100.00
2022-10-01T08:05:16.376Z,100.00
2022-10-01T08:07:46.272Z,100.00
2022-10-01T08:10:14.707Z,100.00
2022-10-01T08:12:43.261Z,100.00
2022-10-01T08:15:13.793Z,100.00
2022-10-01T08:17:42.476Z,100.00
2022-10-01T08:20:15.785Z,100.00
2022-10-01T08:22:43.443Z,100.00
2022-10-01T08:25:11.410Z,100.00
2022-10-01T08:27:39.947Z,100.00
2022-10-01T08:30:09.853Z,100.00
2022-10-01T08:32:41.425Z,100.00
2022-10-01T08:35:09.704Z,100.00
2022-10-01T08:37:37.471Z,100.00
2022-10-01T08:40:06.105Z,100.00
2022-10-01T08:42:48.734Z,100.00
2022-10-01T08:45:21.215Z,100.00
2022-10-01T08:47:56.666Z,100.00
2022-10-01T08:50:33.200Z,100.00
2022-10-01T08:53:04.872Z,100.00
2022-10-01T08:55:36.444Z,100.00
2022-10-01T08:58:07.114Z,100.00
2022-10-01T09:00:35.526Z,100.00
2022-10-01T09:03:08.707Z,100.00
2022-10-01T09:05:45.345Z,100.00
2022-10-01T09:08:26.122Z,100.00
2022-10-01T09:10:58.006Z,100.00
2022-10-01T09:13:40.591Z,100.00
2022-10-01T09:16:15.733Z,100.00
2022-10-01T09:18:53.180Z,100.00
2022-10-01T09:21:25.868Z,100.00
2022-10-01T09:24:03.849Z,100.00
2022-10-01T09:26:32.168Z,100.00
2022-10-01T09:29:02.147Z,100.00
2022-10-01T09:31:34.988Z,100.00
2022-10-01T09:34:11.319Z,100.00
2022-10-01T09:36:42.734Z,100.00
2022-10-01T09:39:16.111Z,100.00
2022-10-01T09:41:46.179Z,100.00
2022-10-01T09:44:19.008Z,100.00
2022-10-01T09:46:47.096Z,100.00
2022-10-01T09:49:20.684Z,100.00
2022-10-01T09:51:51.237Z,100.00
2022-10-01T09:54:23.320Z,100.00
2022-10-01T09:56:54.966Z,100.00
2022-10-01T09:59:25.626Z,100.00
2022-10-01T10:01:58.851Z,100.00
2022-10-01T10:04:27.953Z,100.00
2022-10-01T10:07:01.222Z,100.00
2022-10-01T10:09:31.746Z,100.00
2022-10-01T10:11:59.731Z,100.00
2022-10-01T10:14:31.171Z,100.00
2022-10-01T10:16:59.261Z,100.00
2022-10-01T10:19:29.202Z,100.00
2022-10-01T10:22:00.615Z,98.85
2022-10-01T10:24:33.062Z,99.81
2022-10-01T10:27:03.817Z,98.87
2022-10-01T10:29:33.477Z,98.62
2022-10-01T10:32:04.783Z,98.29
2022-10-01T10:34:35.398Z,97.35
2022-10-01T10:37:06.103Z,98.78
2022-10-01T10:39:36.116Z,100.00
2022-10-01T10:42:05.866Z,100.00
2022-10-01T10:44:36.299Z,100.00
2022-10-01T10:47:06.616Z,100.00
2022-10-01T10:49:44.275Z,100.00
2022-10-01T10:52:23.849Z,100.00
2022-10-01T10:54:52.444Z,100.00
2022-10-01T10:57:22.293Z,100.00
2022-10-01T10:59:57.238Z,100.00
2022-10-01T11:02:25.797Z,100.00
2022-10-01T11:05:02.759Z,100.00
2022-10-01T11:07:31.261Z,100.00
2022-10-01T11:10:07.433Z,100.00
2022-10-01T11:12:46.030Z,100.00
2022-10-01T11:15:24.259Z,100.00
2022-10-01T11:18:25.284Z,100.00
2022-10-01T11:21:04.556Z,100.00
2022-10-01T11:24:08.990Z,100.00
2022-10-01T11:26:50.549Z,100.00
2022-10-01T11:29:29.367Z,100.00
2022-10-01T11:32:05.589Z,100.00
2022-10-01T11:35:06.639Z,100.00
2022-10-01T11:37:53.239Z,100.00
2022-10-01T11:40:25.072Z,100.00
2022-10-01T11:42:54.431Z,100.00
2022-10-01T11:45:25.301Z,100.00
2022-10-01T11:47:57.204Z,100.00
2022-10-01T11:50:26.798Z,100.00
2022-10-01T11:53:00.037Z,100.00
2022-10-01T11:56:04.738Z,100.00
2022-10-01T11:58:51.281Z,100.00
2022-10-01T12:01:25.868Z,100.00
2022-10-01T12:04:02.718Z,100.00
2022-10-01T12:06:34.503Z,100.00
2022-10-01T12:09:07.400Z,100.00
2022-10-01T12:11:38.836Z,100.00
2022-10-01T12:14:11.959Z,100.00
2022-10-01T12:16:55.656Z,100.00
2022-10-01T12:19:25.592Z,100.00
2022-10-01T12:21:58.307Z,100.00
2022-10-01T12:24:30.311Z,100.00
2022-10-01T12:27:15.742Z,99.20
2022-10-01T12:29:50.671Z,99.77
2022-10-01T12:32:23.947Z,100.00
2022-10-01T12:35:06.979Z,100.00
2022-10-01T12:37:44.777Z,99.92
2022-10-01T12:40:26.616Z,100.00
2022-10-01T12:43:08.174Z,100.00
2022-10-01T12:45:44.493Z,100.00
2022-10-01T12:48:17.754Z,100.00
2022-10-01T12:50:51.340Z,100.00
2022-10-01T12:53:25.970Z,100.00
2022-10-01T12:56:08.888Z,100.00
2022-10-01T12:59:06.440Z,100.00
2022-10-01T13:01:44.724Z,100.00
2022-10-01T13:04:26.870Z,100.00
2022-10-01T13:07:03.338Z,100.00
2022-10-01T13:09:39.593Z,100.00
2022-10-01T13:12:18.136Z,100.00
2022-10-01T13:14:46.485Z,100.00
2022-10-01T13:17:18.696Z,100.00
2022-10-01T13:19:50.066Z,100.00
2022-10-01T13:22:22.272Z,100.00
2022-10-01T13:24:58.522Z,100.00
2022-10-01T13:27:36.436Z,100.00
2022-10-01T13:30:07.711Z,100.00
2022-10-01T13:32:37.234Z,100.00
2022-10-01T13:35:24.304Z,97.82
2022-10-01T13:37:51.975Z,97.18
2022-10-01T13:40:26.697Z,99.12
2022-10-01T13:42:57.842Z,98.51
2022-10-01T13:45:29.526Z,88.61
2022-10-01T13:48:21.440Z,93.46
2022-10-01T13:50:57.409Z,91.57
2022-10-01T13:53:26.826Z,84.88
2022-10-01T13:55:56.714Z,79.33
2022-10-01T13:58:38.736Z,82.76
2022-10-01T14:01:24.686Z,76.52
2022-10-01T14:04:01.188Z,76.04
2022-10-01T14:06:31.745Z,72.83
2022-10-01T14:09:07.282Z,72.59
2022-10-01T14:11:54.392Z,70.38
2022-10-01T14:14:43.025Z,68.35
2022-10-01T14:17:11.170Z,68.75
2022-10-01T14:19:49.411Z,68.42
2022-10-01T14:22:30.035Z,66.27
2022-10-01T14:25:11.572Z,61.92
2022-10-01T14:27:45.406Z,64.21
2022-10-01T14:30:16.849Z,62.33
2022-10-01T14:33:09.331Z,63.10
2022-10-01T14:35:39.887Z,66.68
2022-10-01T14:38:13.825Z,67.75
2022-10-01T14:40:43.171Z,70.09
2022-10-01T14:43:24.100Z,72.72
2022-10-01T14:45:55.147Z,73.63
2022-10-01T14:48:24.712Z,72.96
2022-10-01T14:50:54.512Z,71.70
2022-10-01T14:53:24.851Z,67.69
2022-10-01T14:55:59.746Z,76.15
2022-10-01T14:58:31.228Z,77.40
2022-10-01T15:01:00.419Z,69.54
2022-10-01T15:03:28.423Z,67.78
2022-10-01T15:06:07.906Z,62.77
2022-10-01T15:08:41.881Z,59.90
2022-10-01T15:11:14.254Z,57.67
2022-10-01T15:13:44.537Z,65.24
2022-10-01T15:16:16.538Z,68.18
2022-10-01T15:18:48.194Z,69.03
2022-10-01T15:21:20.263Z,71.82
2022-10-01T15:23:49.280Z,72.37
2022-10-01T15:26:21.766Z,72.57
2022-10-01T15:28:49.691Z,74.05
2022-10-01T15:31:20.236Z,74.26
2022-10-01T15:33:48.884Z,75.33
2022-10-01T15:36:18.901Z,75.28
2022-10-01T15:38:47.598Z,71.87
2022-10-01T15:41:31.561Z,73.04
2022-10-01T15:44:01.162Z,74.48
2022-10-01T15:46:33.648Z,73.56
2022-10-01T15:49:20.367Z,73.22
2022-10-01T15:52:12.162Z,71.52
2022-10-01T15:54:40.876Z,75.50
2022-10-01T15:57:08.999Z,76.21
2022-10-01T15:59:37.576Z,78.02
2022-10-01T16:02:11.341Z,78.85
2022-10-01T16:04:39.399Z,74.41
2022-10-01T16:07:08.163Z,74.05
2022-10-01T16:09:35.690Z,80.98
2022-10-01T16:12:04.752Z,81.95
2022-10-01T16:14:36.689Z,83.65
2022-10-01T16:17:27.823Z,84.61
2022-10-01T16:19:57.850Z,84.47
2022-10-01T16:22:27.508Z,84.03
2022-10-01T16:24:56.424Z,86.82
2022-10-01T16:27:25.842Z,88.09
2022-10-01T16:30:04.739Z,87.54
2022-10-01T16:32:34.968Z,87.81
2022-10-01T16:35:21.030Z,88.22
2022-10-01T16:37:50.251Z,89.17
2022-10-01T16:40:19.085Z,88.71
2022-10-01T16:42:48.085Z,87.34
2022-10-01T16:45:17.953Z,86.23
2022-10-01T16:47:47.486Z,83.73
2022-10-01T16:50:17.056Z,83.50
2022-10-01T16:52:47.027Z,82.66
2022-10-01T16:55:19.273Z,82.19
2022-10-01T16:57:47.688Z,82.50
2022-10-01T17:00:16.505Z,82.12
2022-10-01T17:02:44.229Z,82.45
2022-10-01T17:05:18.049Z,82.06
2022-10-01T17:07:46.022Z,81.21
2022-10-01T17:10:14.088Z,84.49
2022-10-01T17:12:42.784Z,83.48
2022-10-01T17:15:14.151Z,83.22
2022-10-01T17:17:41.684Z,82.26
2022-10-01T17:20:10.243Z,84.07
2022-10-01T17:22:40.004Z,84.90
2022-10-01T17:25:09.346Z,83.71
2022-10-01T17:27:37.125Z,81.79
2022-10-01T17:30:05.282Z,82.82
2022-10-01T17:32:34.124Z,84.73
2022-10-01T17:35:01.856Z,85.55
2022-10-01T17:37:30.777Z,86.69
2022-10-01T17:40:00.243Z,86.37
2022-10-01T17:42:28.078Z,86.95
2022-10-01T17:44:55.803Z,86.83
2022-10-01T17:47:23.772Z,87.81
2022-10-01T17:49:51.399Z,88.38
2022-10-01T17:52:19.644Z,89.47
2022-10-01T17:54:47.292Z,89.95
2022-10-01T17:57:17.513Z,92.05
2022-10-01T17:59:45.465Z,90.74
2022-10-01T18:02:36.643Z,91.45
2022-10-01T18:05:03.574Z,92.41
2022-10-01T18:07:31.269Z,91.90
2022-10-01T18:10:02.473Z,92.75
2022-10-01T18:12:32.924Z,92.89
2022-10-01T18:15:00.744Z,94.24
2022-10-01T18:17:28.520Z,93.23
2022-10-01T18:19:57.609Z,96.48
2022-10-01T18:22:26.710Z,95.23
2022-10-01T18:24:55.087Z,94.92
2022-10-01T18:27:27.221Z,95.20
2022-10-01T18:29:56.364Z,96.07
2022-10-01T18:32:26.345Z,98.35
2022-10-01T18:34:57.862Z,98.47
2022-10-01T18:37:34.880Z,98.82
2022-10-01T18:40:09.515Z,98.76
2022-10-01T18:42:44.238Z,98.32
2022-10-01T18:45:18.390Z,99.64
2022-10-01T18:47:56.090Z,100.00
2022-10-01T18:50:35.741Z,100.00
2022-10-01T18:53:16.101Z,100.00
2022-10-01T18:56:03.860Z,100.00
2022-10-01T18:58:49.174Z,100.00
2022-10-01T19:01:26.417Z,100.00
2022-10-01T19:04:05.863Z,100.00
2022-10-01T19:06:45.324Z,99.95
2022-10-01T19:09:26.692Z,100.00
2022-10-01T19:12:01.448Z,100.00
2022-10-01T19:14:47.372Z,100.00
2022-10-01T19:17:28.130Z,100.00
2022-10-01T19:23:14.458Z,100.00
2022-10-01T19:25:49.457Z,100.00
2022-10-01T19:28:33.739Z,100.00
2022-10-01T19:31:12.688Z,100.00
2022-10-01T19:33:47.190Z,100.00
2022-10-01T19:36:26.594Z,100.00
2022-10-01T19:38:56.866Z,100.00
2022-10-01T19:41:29.684Z,100.00
2022-10-01T19:44:01.390Z,100.00
2022-10-01T19:46:36.711Z,100.00
2022-10-01T19:49:14.587Z,100.00
2022-10-01T19:51:45.845Z,100.00
2022-10-01T19:54:16.925Z,100.00
2022-10-01T19:56:48.657Z,100.00
2022-10-01T19:59:19.704Z,100.00
2022-10-01T20:01:54.867Z,100.00
2022-10-01T20:04:29.287Z,100.00
2022-10-01T20:07:06.132Z,100.00
2022-10-01T20:09:40.400Z,100.00
2022-10-01T20:12:20.508Z,100.00
2022-10-01T20:15:09.931Z,100.00
2022-10-01T20:17:50.029Z,100.00
2022-10-01T20:20:23.500Z,100.00
2022-10-01T20:23:03.124Z,100.00
2022-10-01T20:25:39.419Z,100.00
2022-10-01T20:28:11.597Z,100.00
2022-10-01T20:30:47.239Z,100.00
2022-10-01T20:33:24.133Z,100.00
2022-10-01T20:35:59.117Z,100.00
2022-10-01T20:38:30.468Z,100.00
2022-10-01T20:40:59.380Z,100.00
2022-10-01T20:43:31.393Z,100.00
2022-10-01T20:46:04.766Z,100.00
2022-10-01T20:48:34.881Z,100.00
2022-10-01T20:51:07.454Z,100.00
2022-10-01T20:53:38.834Z,100.00
2022-10-01T20:56:18.172Z,100.00
2022-10-01T20:58:49.762Z,100.00
2022-10-01T21:01:21.554Z,100.00
2022-10-01T21:03:53.309Z,100.00
2022-10-01T21:06:26.066Z,100.00
2022-10-01T21:08:58.175Z,100.00
2022-10-01T21:11:31.073Z,100.00
2022-10-01T21:14:07.532Z,100.00
2022-10-01T21:16:44.570Z,100.00
2022-10-01T21:19:34.312Z,100.00
2022-10-01T21:22:17.130Z,100.00
2022-10-01T21:24:59.245Z,100.00
2022-10-01T21:27:52.468Z,100.00
2022-10-01T21:30:21.320Z,100.00
2022-10-01T21:33:14.837Z,100.00
2022-10-01T21:35:50.277Z,100.00
2022-10-01T21:38:30.260Z,100.00
2022-10-01T21:41:07.907Z,100.00
2022-10-01T21:43:46.780Z,100.00
2022-10-01T21:46:21.528Z,100.00
2022-10-01T21:48:57.908Z,100.00
2022-10-01T21:51:34.647Z,100.00
2022-10-01T21:54:35.602Z,100.00
2022-10-01T21:57:12.072Z,100.00
2022-10-01T21:59:59.195Z,100.00
2022-10-01T22:02:33.647Z,100.00
2022-10-01T22:05:06.508Z,100.00
2022-10-01T22:07:37.180Z,100.00
2022-10-01T22:10:11.207Z,100.00
2022-10-01T22:12:42.802Z,100.00
2022-10-01T22:15:21.182Z,100.00
2022-10-01T22:17:50.618Z,100.00
2022-10-01T22:20:20.462Z,100.00
2022-10-01T22:22:50.853Z,100.00
2022-10-01T22:25:19.418Z,100.00
2022-10-01T22:27:52.032Z,100.00
2022-10-01T22:30:21.673Z,100.00
2022-10-01T22:32:52.296Z,100.00
2022-10-01T22:35:25.788Z,100.00
2022-10-01T22:37:57.292Z,100.00
2022-10-01T22:40:28.708Z,100.00
2022-10-01T22:43:02.368Z,100.00
2022-10-01T22:45:42.632Z,100.00
2022-10-01T22:48:25.737Z,100.00
2022-10-01T22:51:06.335Z,100.00
2022-10-01T22:53:55.793Z,100.00
2022-10-01T22:56:27.262Z,100.00
2022-10-01T22:59:08.289Z,100.00
2022-10-01T23:01:43.592Z,100.00
2022-10-01T23:04:21.811Z,100.00
2022-10-01T23:06:57.397Z,100.00
2022-10-01T23:09:29.165Z,100.00
2022-10-01T23:12:01.941Z,100.00
2022-10-01T23:14:40.816Z,100.00
2022-10-01T23:17:12.308Z,100.00
2022-10-01T23:19:46.582Z,100.00
2022-10-01T23:22:23.854Z,100.00
2022-10-01T23:25:04.613Z,100.00
2022-10-01T23:27:38.741Z,100.00
2022-10-01T23:30:11.822Z,100.00
2022-10-01T23:32:49.845Z,100.00
2022-10-01T23:35:20.657Z,100.00
2022-10-01T23:38:03.468Z,100.00
2022-10-01T23:40:34.171Z,100.00
2022-10-01T23:43:07.744Z,100.00
2022-10-01T23:45:40.250Z,100.00
2022-10-01T23:48:13.759Z,100.00
2022-10-01T23:50:44.393Z,100.00
2022-10-01T23:53:16.415Z,100.00
2022-10-01T23:56:08.172Z,100.00
2022-10-01T23:58:43.686Z,100.00
